sensor_id;sensor_type;location;lat;lon;timestamp;pressure;altitude;pressure_sealevel;temperature;humidity
63097;BME280;49185;42.320;23.198;2022-08-18T00:01:26;94618.88;;;15.75;100.00
63097;BME280;49185;42.320;23.198;2022-08-18T00:03:52;94604.16;;;15.88;100.00
63097;BME280;49185;42.320;23.198;2022-08-18T00:06:18;94599.78;;;15.78;100.00
63097;BME280;49185;42.320;23.198;2022-08-18T00:08:43;94602.91;;;15.64;100.00
63097;BME280;49185;42.320;23.198;2022-08-18T00:11:09;94595.63;;;15.61;100.00
63097;BME280;49185;42.320;23.198;2022-08-18T00:13:34;94598.44;;;15.57;100.00
63097;BME280;49185;42.320;23.198;2022-08-18T00:16:00;94599.78;;;15.49;100.00
63097;BME280;49185;42.320;23.198;2022-08-18T00:18:26;94604.63;;;15.42;100.00
63097;BME280;49185;42.320;23.198;2022-08-18T00:20:52;94599.84;;;15.33;100.00
63097;BME280;49185;42.320;23.198;2022-08-18T00:23:18;94605.16;;;15.37;100.00
63097;BME280;49185;42.320;23.198;2022-08-18T00:25:43;94611.53;;;15.30;100.00
63097;BME280;49185;42.320;23.198;2022-08-18T00:28:09;94606.53;;;15.28;100.00
63097;BME280;49185;42.320;23.198;2022-08-18T00:30:34;94596.97;;;15.24;100.00
63097;BME280;49185;42.320;23.198;2022-08-18T00:33:00;94600.97;;;15.19;100.00
63097;BME280;49185;42.320;23.198;2022-08-18T00:35:27;94601.06;;;15.16;100.00
63097;BME280;49185;42.320;23.198;2022-08-18T00:37:55;94595.44;;;15.23;100.00
63097;BME280;49185;42.320;23.198;2022-08-18T00:40:25;94597.41;;;15.06;100.00
63097;BME280;49185;42.320;23.198;2022-08-18T00:42:55;94598.81;;;14.98;100.00
63097;BME280;49185;42.320;23.198;2022-08-18T00:45:26;94603.28;;;14.88;100.00
63097;BME280;49185;42.320;23.198;2022-08-18T00:47:53;94602.50;;;14.88;100.00
63097;BME280;49185;42.320;23.198;2022-08-18T00:50:27;94597.78;;;14.92;100.00
63097;BME280;49185;42.320;23.198;2022-08-18T00:53:10;94603.03;;;14.99;100.00
63097;BME280;49185;42.320;23.198;2022-08-18T00:55:39;94607.78;;;14.95;100.00
63097;BME280;49185;42.320;23.198;2022-08-18T00:58:08;94608.63;;;14.92;100.00
63097;BME280;49185;42.320;23.198;2022-08-18T01:00:35;94607.78;;;14.95;100.00
63097;BME280;49185;42.320;23.198;2022-08-18T01:03:04;94593.38;;;14.98;100.00
63097;BME280;49185;42.320;23.198;2022-08-18T01:05:35;94600.31;;;14.99;100.00
63097;BME280;49185;42.320;23.198;2022-08-18T01:08:02;94590.00;;;14.94;100.00
63097;BME280;49185;42.320;23.198;2022-08-18T01:10:32;94587.78;;;15.05;100.00
63097;BME280;49185;42.320;23.198;2022-08-18T01:12:58;94583.03;;;15.09;100.00
63097;BME280;49185;42.320;23.198;2022-08-18T01:15:24;94579.91;;;15.11;100.00
63097;BME280;49185;42.320;23.198;2022-08-18T01:17:51;94583.28;;;15.15;100.00
63097;BME280;49185;42.320;23.198;2022-08-18T01:20:21;94590.19;;;15.03;100.00
63097;BME280;49185;42.320;23.198;2022-08-18T01:23:13;94591.75;;;15.46;100.00
63097;BME280;49185;42.320;23.198;2022-08-18T01:25:40;94590.31;;;15.41;100.00
63097;BME280;49185;42.320;23.198;2022-08-18T01:28:06;94592.47;;;15.05;100.00
63097;BME280;49185;42.320;23.198;2022-08-18T01:30:44;94586.66;;;15.19;100.00
63097;BME280;49185;42.320;23.198;2022-08-18T01:33:10;94588.03;;;15.56;100.00
63097;BME280;49185;42.320;23.198;2022-08-18T01:35:35;94592.06;;;15.64;100.00
63097;BME280;49185;42.320;23.198;2022-08-18T01:38:01;94594.25;;;15.69;100.00
63097;BME280;49185;42.320;23.198;2022-08-18T01:40:26;94590.81;;;15.52;100.00
63097;BME280;49185;42.320;23.198;2022-08-18T01:42:52;94596.09;;;14.98;100.00
63097;BME280;49185;42.320;23.198;2022-08-18T01:45:18;94589.88;;;14.69;100.00
63097;BME280;49185;42.320;23.198;2022-08-18T01:47:43;94585.88;;;14.73;100.00
63097;BME280;49185;42.320;23.198;2022-08-18T01:50:09;94582.41;;;14.56;100.00
63097;BME280;49185;42.320;23.198;2022-08-18T01:52:34;94583.59;;;14.55;100.00
63097;BME280;49185;42.320;23.198;2022-08-18T01:55:01;94584.53;;;14.49;100.00
63097;BME280;49185;42.320;23.198;2022-08-18T01:57:27;94585.72;;;14.48;100.00
63097;BME280;49185;42.320;23.198;2022-08-18T01:59:52;94582.25;;;14.47;100.00
63097;BME280;49185;42.320;23.198;2022-08-18T02:02:24;94587.13;;;14.52;100.00
63097;BME280;49185;42.320;23.198;2022-08-18T02:04:54;94592.19;;;14.99;100.00
63097;BME280;49185;42.320;23.198;2022-08-18T02:07:23;94592.31;;;14.79;100.00
63097;BME280;49185;42.320;23.198;2022-08-18T02:09:48;94597.66;;;14.67;100.00
63097;BME280;49185;42.320;23.198;2022-08-18T02:12:14;94597.66;;;14.67;100.00
63097;BME280;49185;42.320;23.198;2022-08-18T02:14:39;94598.22;;;14.74;100.00
63097;BME280;49185;42.320;23.198;2022-08-18T02:17:07;94601.00;;;14.54;100.00
63097;BME280;49185;42.320;23.198;2022-08-18T02:19:36;94595.84;;;14.44;100.00
63097;BME280;49185;42.320;23.198;2022-08-18T02:22:03;94601.44;;;14.33;100.00
63097;BME280;49185;42.320;23.198;2022-08-18T02:24:29;94607.03;;;14.26;100.00
63097;BME280;49185;42.320;23.198;2022-08-18T02:26:54;94603.81;;;14.15;100.00
63097;BME280;49185;42.320;23.198;2022-08-18T02:29:19;94606.97;;;13.94;100.00
63097;BME280;49185;42.320;23.198;2022-08-18T02:31:46;94605.94;;;13.87;100.00
63097;BME280;49185;42.320;23.198;2022-08-18T02:34:11;94604.13;;;13.81;100.00
63097;BME280;49185;42.320;23.198;2022-08-18T02:36:37;94602.53;;;13.83;100.00
63097;BME280;49185;42.320;23.198;2022-08-18T02:39:02;94605.09;;;13.90;100.00
63097;BME280;49185;42.320;23.198;2022-08-18T02:41:28;94602.22;;;13.98;100.00
63097;BME280;49185;42.320;23.198;2022-08-18T02:43:54;94603.97;;;14.08;100.00
63097;BME280;49185;42.320;23.198;2022-08-18T02:46:19;94606.97;;;14.30;100.00
63097;BME280;49185;42.320;23.198;2022-08-18T02:48:44;94617.09;;;14.78;100.00
63097;BME280;49185;42.320;23.198;2022-08-18T02:51:13;94610.13;;;14.93;100.00
63097;BME280;49185;42.320;23.198;2022-08-18T02:53:41;94611.44;;;14.36;100.00
63097;BME280;49185;42.320;23.198;2022-08-18T02:56:13;94613.94;;;14.11;100.00
63097;BME280;49185;42.320;23.198;2022-08-18T02:58:38;94613.66;;;14.05;100.00
63097;BME280;49185;42.320;23.198;2022-08-18T03:01:04;94610.16;;;13.88;100.00
63097;BME280;49185;42.320;23.198;2022-08-18T03:03:29;94604.06;;;13.84;100.00
63097;BME280;49185;42.320;23.198;2022-08-18T03:05:55;94601.34;;;13.84;100.00
63097;BME280;49185;42.320;23.198;2022-08-18T03:08:20;94604.19;;;13.97;100.00
63097;BME280;49185;42.320;23.198;2022-08-18T03:10:50;94597.75;;;13.91;100.00
63097;BME280;49185;42.320;23.198;2022-08-18T03:13:16;94596.00;;;13.81;100.00
63097;BME280;49185;42.320;23.198;2022-08-18T03:15:41;94598.66;;;13.84;100.00
63097;BME280;49185;42.320;23.198;2022-08-18T03:18:07;94602.59;;;13.80;100.00
63097;BME280;49185;42.320;23.198;2022-08-18T03:20:32;94603.56;;;13.89;100.00
63097;BME280;49185;42.320;23.198;2022-08-18T03:23:02;94604.44;;;14.03;100.00
63097;BME280;49185;42.320;23.198;2022-08-18T03:25:27;94603.72;;;13.82;100.00
63097;BME280;49185;42.320;23.198;2022-08-18T03:27:53;94601.25;;;14.08;100.00
63097;BME280;49185;42.320;23.198;2022-08-18T03:30:18;94608.91;;;13.93;100.00
63097;BME280;49185;42.320;23.198;2022-08-18T03:32:43;94609.53;;;13.81;100.00
63097;BME280;49185;42.320;23.198;2022-08-18T03:35:09;94611.47;;;13.80;100.00
63097;BME280;49185;42.320;23.198;2022-08-18T03:37:34;94610.28;;;13.81;100.00
63097;BME280;49185;42.320;23.198;2022-08-18T03:40:00;94616.56;;;13.78;100.00
63097;BME280;49185;42.320;23.198;2022-08-18T03:42:25;94618.19;;;13.72;100.00
63097;BME280;49185;42.320;23.198;2022-08-18T03:44:51;94612.75;;;13.76;100.00
63097;BME280;49185;42.320;23.198;2022-08-18T03:47:16;94602.28;;;13.78;100.00
63097;BME280;49185;42.320;23.198;2022-08-18T03:49:42;94609.09;;;13.82;100.00
63097;BME280;49185;42.320;23.198;2022-08-18T03:52:08;94604.22;;;13.77;100.00
63097;BME280;49185;42.320;23.198;2022-08-18T03:54:34;94606.28;;;13.89;100.00
63097;BME280;49185;42.320;23.198;2022-08-18T03:57:00;94600.81;;;13.93;100.00
63097;BME280;49185;42.320;23.198;2022-08-18T03:59:26;94611.94;;;14.15;100.00
63097;BME280;49185;42.320;23.198;2022-08-18T04:01:53;94606.59;;;14.11;100.00
63097;BME280;49185;42.320;23.198;2022-08-18T04:04:21;94614.91;;;14.01;100.00
63097;BME280;49185;42.320;23.198;2022-08-18T04:06:50;94615.88;;;14.10;100.00
63097;BME280;49185;42.320;23.198;2022-08-18T04:09:17;94619.34;;;14.11;100.00
63097;BME280;49185;42.320;23.198;2022-08-18T04:11:43;94623.19;;;14.30;100.00
63097;BME280;49185;42.320;23.198;2022-08-18T04:14:11;94618.72;;;14.39;100.00
63097;BME280;49185;42.320;23.198;2022-08-18T04:16:37;94621.66;;;14.48;100.00
63097;BME280;49185;42.320;23.198;2022-08-18T04:19:03;94621.66;;;14.65;100.00
63097;BME280;49185;42.320;23.198;2022-08-18T04:21:31;94631.22;;;15.02;100.00
63097;BME280;49185;42.320;23.198;2022-08-18T04:23:57;94625.91;;;15.72;100.00
63097;BME280;49185;42.320;23.198;2022-08-18T04:26:23;94629.91;;;15.68;100.00
63097;BME280;49185;42.320;23.198;2022-08-18T04:28:48;94638.97;;;15.16;100.00
63097;BME280;49185;42.320;23.198;2022-08-18T04:31:14;94641.69;;;15.16;100.00
63097;BME280;49185;42.320;23.198;2022-08-18T04:33:40;94641.53;;;16.22;100.00
63097;BME280;49185;42.320;23.198;2022-08-18T04:36:08;94636.88;;;16.23;100.00
63097;BME280;49185;42.320;23.198;2022-08-18T04:38:34;94646.06;;;16.80;100.00
63097;BME280;49185;42.320;23.198;2022-08-18T04:41:00;94654.63;;;16.91;100.00
63097;BME280;49185;42.320;23.198;2022-08-18T04:43:25;94651.22;;;16.36;100.00
63097;BME280;49185;42.320;23.198;2022-08-18T04:45:51;94654.34;;;16.35;100.00
63097;BME280;49185;42.320;23.198;2022-08-18T04:48:16;94647.59;;;15.72;100.00
63097;BME280;49185;42.320;23.198;2022-08-18T04:50:42;94649.25;;;15.82;100.00
63097;BME280;49185;42.320;23.198;2022-08-18T04:53:08;94654.50;;;15.89;100.00
63097;BME280;49185;42.320;23.198;2022-08-18T04:55:33;94646.31;;;16.18;100.00
63097;BME280;49185;42.320;23.198;2022-08-18T04:57:59;94649.59;;;16.39;100.00
63097;BME280;49185;42.320;23.198;2022-08-18T05:00:25;94650.91;;;17.10;100.00
63097;BME280;49185;42.320;23.198;2022-08-18T05:02:50;94649.41;;;18.22;100.00
63097;BME280;49185;42.320;23.198;2022-08-18T05:05:15;94647.88;;;20.23;100.00
63097;BME280;49185;42.320;23.198;2022-08-18T05:07:45;94653.97;;;21.11;100.00
63097;BME280;49185;42.320;23.198;2022-08-18T05:10:11;94662.28;;;21.89;100.00
63097;BME280;49185;42.320;23.198;2022-08-18T05:12:38;94653.38;;;22.62;100.00
63097;BME280;49185;42.320;23.198;2022-08-18T05:15:03;94660.66;;;23.29;100.00
63097;BME280;49185;42.320;23.198;2022-08-18T05:17:29;94662.66;;;23.64;100.00
63097;BME280;49185;42.320;23.198;2022-08-18T05:19:54;94671.69;;;23.70;100.00
63097;BME280;49185;42.320;23.198;2022-08-18T05:22:20;94675.09;;;24.05;100.00
63097;BME280;49185;42.320;23.198;2022-08-18T05:24:46;94679.72;;;23.73;100.00
63097;BME280;49185;42.320;23.198;2022-08-18T05:27:12;94673.38;;;24.08;100.00
63097;BME280;49185;42.320;23.198;2022-08-18T05:29:37;94681.41;;;24.11;100.00
63097;BME280;49185;42.320;23.198;2022-08-18T05:32:04;94675.81;;;24.46;100.00
63097;BME280;49185;42.320;23.198;2022-08-18T05:34:29;94673.16;;;25.63;65.99
63097;BME280;49185;42.320;23.198;2022-08-18T05:37:09;94675.41;;;26.24;63.39
63097;BME280;49185;42.320;23.198;2022-08-18T05:39:53;94680.06;;;25.90;65.19
63097;BME280;49185;42.320;23.198;2022-08-18T05:42:22;94690.56;;;27.35;58.99
63097;BME280;49185;42.320;23.198;2022-08-18T05:44:50;94681.06;;;26.96;58.73
63097;BME280;49185;42.320;23.198;2022-08-18T05:47:28;94690.56;;;27.40;58.11
63097;BME280;49185;42.320;23.198;2022-08-18T05:49:57;94689.25;;;26.30;61.41
63097;BME280;49185;42.320;23.198;2022-08-18T05:52:37;94695.56;;;27.42;57.09
63097;BME280;49185;42.320;23.198;2022-08-18T05:55:35;94693.56;;;27.37;56.36
63097;BME280;49185;42.320;23.198;2022-08-18T05:58:12;94685.81;;;28.21;52.99
63097;BME280;49185;42.320;23.198;2022-08-18T06:00:43;94681.31;;;28.59;50.23
63097;BME280;49185;42.320;23.198;2022-08-18T06:03:25;94686.25;;;27.50;52.22
63097;BME280;49185;42.320;23.198;2022-08-18T06:06:00;94686.25;;;27.50;55.21
63097;BME280;49185;42.320;23.198;2022-08-18T06:08:32;94693.78;;;27.50;54.00
63097;BME280;49185;42.320;23.198;2022-08-18T06:11:01;94693.31;;;27.40;55.52
63097;BME280;49185;42.320;23.198;2022-08-18T06:13:26;94685.75;;;29.09;49.18
63097;BME280;49185;42.320;23.198;2022-08-18T06:16:13;94676.53;;;28.95;50.43
63097;BME280;49185;42.320;23.198;2022-08-18T06:24:09;94674.63;;;29.38;46.10
63097;BME280;49185;42.320;23.198;2022-08-18T06:26:48;94668.50;;;29.94;46.06
63097;BME280;49185;42.320;23.198;2022-08-18T06:32:40;94673.59;;;30.33;43.84
63097;BME280;49185;42.320;23.198;2022-08-18T06:35:24;94676.78;;;32.31;41.09
63097;BME280;49185;42.320;23.198;2022-08-18T06:38:17;94673.47;;;33.42;36.73
63097;BME280;49185;42.320;23.198;2022-08-18T06:41:00;94671.44;;;32.67;38.33
63097;BME280;49185;42.320;23.198;2022-08-18T06:43:26;94669.97;;;31.93;38.92
63097;BME280;49185;42.320;23.198;2022-08-18T06:45:52;94660.28;;;32.81;37.22
63097;BME280;49185;42.320;23.198;2022-08-18T06:48:27;94662.34;;;31.54;41.88
63097;BME280;49185;42.320;23.198;2022-08-18T06:51:00;94657.66;;;30.71;43.56
63097;BME280;49185;42.320;23.198;2022-08-18T06:59:32;94650.69;;;32.34;39.61
63097;BME280;49185;42.320;23.198;2022-08-18T07:02:18;94647.47;;;32.30;38.05
63097;BME280;49185;42.320;23.198;2022-08-18T07:05:06;94650.72;;;31.95;41.38
63097;BME280;49185;42.320;23.198;2022-08-18T07:07:37;94649.34;;;34.09;37.00
63097;BME280;49185;42.320;23.198;2022-08-18T07:10:29;94643.78;;;34.61;35.28
63097;BME280;49185;42.320;23.198;2022-08-18T07:12:51;94632.09;;;33.26;37.55
63097;BME280;49185;42.320;23.198;2022-08-18T07:15:29;94638.63;;;32.53;39.41
63097;BME280;49185;42.320;23.198;2022-08-18T07:18:03;94634.97;;;32.24;39.24
63097;BME280;49185;42.320;23.198;2022-08-18T07:20:28;94640.28;;;32.35;36.72
63097;BME280;49185;42.320;23.198;2022-08-18T07:22:58;94628.41;;;34.90;34.25
63097;BME280;49185;42.320;23.198;2022-08-18T07:25:31;94636.78;;;35.21;32.63
63097;BME280;49185;42.320;23.198;2022-08-18T07:27:57;94645.78;;;34.37;34.46
63097;BME280;49185;42.320;23.198;2022-08-18T07:30:27;94636.97;;;33.61;36.74
63097;BME280;49185;42.320;23.198;2022-08-18T07:35:31;94636.22;;;33.11;40.49
63097;BME280;49185;42.320;23.198;2022-08-18T07:40:38;94637.53;;;35.13;32.57
63097;BME280;49185;42.320;23.198;2022-08-18T07:43:12;94631.03;;;34.29;34.40
63097;BME280;49185;42.320;23.198;2022-08-18T07:45:45;94635.09;;;35.02;31.97
63097;BME280;49185;42.320;23.198;2022-08-18T07:48:13;94633.56;;;33.48;37.46
63097;BME280;49185;42.320;23.198;2022-08-18T07:53:55;94626.22;;;34.37;36.16
63097;BME280;49185;42.320;23.198;2022-08-18T07:59:38;94632.03;;;33.75;35.98
63097;BME280;49185;42.320;23.198;2022-08-18T08:08:09;94631.00;;;34.88;35.40
63097;BME280;49185;42.320;23.198;2022-08-18T08:10:42;94636.91;;;32.50;38.02
63097;BME280;49185;42.320;23.198;2022-08-18T08:16:19;94629.09;;;34.68;36.18
63097;BME280;49185;42.320;23.198;2022-08-18T08:21:23;94625.91;;;34.12;39.90
63097;BME280;49185;42.320;23.198;2022-08-18T08:32:20;94614.19;;;34.73;37.56
63097;BME280;49185;42.320;23.198;2022-08-18T08:34:54;94619.03;;;34.13;39.64
63097;BME280;49185;42.320;23.198;2022-08-18T08:40:11;94620.44;;;34.35;38.22
63097;BME280;49185;42.320;23.198;2022-08-18T08:43:00;94621.38;;;33.94;39.46
63097;BME280;49185;42.320;23.198;2022-08-18T08:45:35;94618.88;;;33.47;41.84
63097;BME280;49185;42.320;23.198;2022-08-18T08:48:06;94617.44;;;32.50;43.61
63097;BME280;49185;42.320;23.198;2022-08-18T08:50:40;94618.28;;;31.18;46.29
63097;BME280;49185;42.320;23.198;2022-08-18T08:53:29;94624.72;;;31.13;44.91
63097;BME280;49185;42.320;23.198;2022-08-18T08:56:01;94614.63;;;32.84;42.72
63097;BME280;49185;42.320;23.198;2022-08-18T08:58:32;94607.38;;;32.47;43.85
63097;BME280;49185;42.320;23.198;2022-08-18T09:01:00;94610.25;;;34.02;41.71
63097;BME280;49185;42.320;23.198;2022-08-18T09:09:10;94596.53;;;32.56;41.95
63097;BME280;49185;42.320;23.198;2022-08-18T09:23:06;94583.63;;;33.29;38.89
63097;BME280;49185;42.320;23.198;2022-08-18T09:37:08;94577.91;;;34.88;33.93
63097;BME280;49185;42.320;23.198;2022-08-18T09:45:57;94565.03;;;35.46;31.01
63097;BME280;49185;42.320;23.198;2022-08-18T09:48:26;94564.88;;;35.06;30.37
63097;BME280;49185;42.320;23.198;2022-08-18T09:51:41;94552.22;;;34.08;31.51
63097;BME280;49185;42.320;23.198;2022-08-18T09:56:12;94555.19;;;32.81;35.19
63097;BME280;49185;42.320;23.198;2022-08-18T09:58:50;94548.69;;;33.28;34.87
63097;BME280;49185;42.320;23.198;2022-08-18T10:01:19;94544.25;;;32.83;35.74
63097;BME280;49185;42.320;23.198;2022-08-18T10:06:43;94545.31;;;34.83;30.86
63097;BME280;49185;42.320;23.198;2022-08-18T10:14:53;94537.78;;;34.40;36.08
63097;BME280;49185;42.320;23.198;2022-08-18T10:17:36;94532.91;;;34.25;35.99
63097;BME280;49185;42.320;23.198;2022-08-18T10:22:51;94519.88;;;33.33;34.79
63097;BME280;49185;42.320;23.198;2022-08-18T10:25:49;94524.84;;;33.55;35.75
63097;BME280;49185;42.320;23.198;2022-08-18T10:28:51;94518.00;;;33.64;32.48
63097;BME280;49185;42.320;23.198;2022-08-18T10:31:17;94515.03;;;33.26;32.71
63097;BME280;49185;42.320;23.198;2022-08-18T10:34:01;94514.69;;;33.65;31.99
63097;BME280;49185;42.320;23.198;2022-08-18T10:39:04;94517.44;;;35.54;30.02
63097;BME280;49185;42.320;23.198;2022-08-18T10:41:30;94518.81;;;35.93;29.30
63097;BME280;49185;42.320;23.198;2022-08-18T10:43:59;94513.41;;;35.87;29.06
63097;BME280;49185;42.320;23.198;2022-08-18T10:46:30;94505.69;;;35.63;29.20
63097;BME280;49185;42.320;23.198;2022-08-18T10:49:20;94512.69;;;35.08;30.36
63097;BME280;49185;42.320;23.198;2022-08-18T10:56:58;94495.03;;;32.36;33.78
63097;BME280;49185;42.320;23.198;2022-08-18T11:04:56;94494.56;;;34.03;31.85
63097;BME280;49185;42.320;23.198;2022-08-18T11:07:25;94501.31;;;34.30;29.95
63097;BME280;49185;42.320;23.198;2022-08-18T11:09:53;94500.44;;;34.89;28.30
63097;BME280;49185;42.320;23.198;2022-08-18T11:20:19;94500.97;;;34.79;29.05
63097;BME280;49185;42.320;23.198;2022-08-18T11:22:57;94504.44;;;35.96;28.17
63097;BME280;49185;42.320;23.198;2022-08-18T11:25:34;94493.69;;;36.17;26.29
63097;BME280;49185;42.320;23.198;2022-08-18T11:28:00;94494.09;;;36.39;29.56
63097;BME280;49185;42.320;23.198;2022-08-18T11:30:34;94494.03;;;35.26;29.38
63097;BME280;49185;42.320;23.198;2022-08-18T11:33:02;94494.34;;;33.93;32.98
63097;BME280;49185;42.320;23.198;2022-08-18T11:35:46;94493.59;;;33.49;33.25
63097;BME280;49185;42.320;23.198;2022-08-18T11:38:13;94489.72;;;34.11;32.27
63097;BME280;49185;42.320;23.198;2022-08-18T11:40:47;94481.91;;;35.16;31.58
63097;BME280;49185;42.320;23.198;2022-08-18T11:43:40;94481.56;;;36.15;29.50
63097;BME280;49185;42.320;23.198;2022-08-18T11:46:13;94477.56;;;37.00;27.70
63097;BME280;49185;42.320;23.198;2022-08-18T11:48:49;94476.16;;;37.09;28.16
63097;BME280;49185;42.320;23.198;2022-08-18T11:53:54;94476.59;;;35.58;29.92
63097;BME280;49185;42.320;23.198;2022-08-18T12:03:54;94460.22;;;39.17;22.69
63097;BME280;49185;42.320;23.198;2022-08-18T12:06:28;94458.44;;;39.31;24.80
63097;BME280;49185;42.320;23.198;2022-08-18T12:09:17;94455.31;;;37.98;26.71
63097;BME280;49185;42.320;23.198;2022-08-18T12:11:55;94445.19;;;38.95;23.01
63097;BME280;49185;42.320;23.198;2022-08-18T12:14:24;94447.22;;;38.75;22.21
63097;BME280;49185;42.320;23.198;2022-08-18T12:16:50;94442.28;;;37.93;23.44
63097;BME280;49185;42.320;23.198;2022-08-18T12:19:16;94446.50;;;37.06;22.73
63097;BME280;49185;42.320;23.198;2022-08-18T12:21:54;94449.13;;;36.04;24.38
63097;BME280;49185;42.320;23.198;2022-08-18T12:24:28;94453.00;;;35.44;24.96
63097;BME280;49185;42.320;23.198;2022-08-18T12:26:55;94444.34;;;34.79;24.76
63097;BME280;49185;42.320;23.198;2022-08-18T12:29:21;94443.47;;;33.72;27.44
63097;BME280;49185;42.320;23.198;2022-08-18T12:31:49;94451.59;;;33.47;27.39
63097;BME280;49185;42.320;23.198;2022-08-18T12:34:16;94443.53;;;33.36;28.88
63097;BME280;49185;42.320;23.198;2022-08-18T12:36:42;94431.34;;;33.47;28.67
63097;BME280;49185;42.320;23.198;2022-08-18T12:39:07;94444.28;;;33.00;28.89
63097;BME280;49185;42.320;23.198;2022-08-18T12:41:33;94440.91;;;32.94;29.33
63097;BME280;49185;42.320;23.198;2022-08-18T12:43:58;94433.88;;;33.01;30.57
63097;BME280;49185;42.320;23.198;2022-08-18T12:46:24;94442.66;;;32.76;32.27
63097;BME280;49185;42.320;23.198;2022-08-18T12:48:50;94438.34;;;32.26;31.68
63097;BME280;49185;42.320;23.198;2022-08-18T12:51:15;94439.16;;;32.34;32.70
63097;BME280;49185;42.320;23.198;2022-08-18T12:53:41;94432.09;;;33.11;30.03
63097;BME280;49185;42.320;23.198;2022-08-18T12:56:16;94423.72;;;33.11;30.02
63097;BME280;49185;42.320;23.198;2022-08-18T13:05:33;94415.81;;;32.66;28.85
63097;BME280;49185;42.320;23.198;2022-08-18T13:08:01;94417.22;;;32.80;29.51
63097;BME280;49185;42.320;23.198;2022-08-18T13:10:27;94413.97;;;32.97;29.79
63097;BME280;49185;42.320;23.198;2022-08-18T13:12:53;94412.53;;;33.03;29.01
63097;BME280;49185;42.320;23.198;2022-08-18T13:15:18;94418.50;;;32.79;29.46
63097;BME280;49185;42.320;23.198;2022-08-18T13:17:44;94420.28;;;32.69;30.17
63097;BME280;49185;42.320;23.198;2022-08-18T13:20:12;94422.47;;;32.63;30.53
63097;BME280;49185;42.320;23.198;2022-08-18T13:22:38;94412.44;;;32.60;28.53
63097;BME280;49185;42.320;23.198;2022-08-18T13:25:04;94407.00;;;32.75;28.86
63097;BME280;49185;42.320;23.198;2022-08-18T13:27:29;94402.00;;;32.53;28.34
63097;BME280;49185;42.320;23.198;2022-08-18T13:29:55;94402.44;;;32.36;27.81
63097;BME280;49185;42.320;23.198;2022-08-18T13:32:20;94392.34;;;32.25;28.60
63097;BME280;49185;42.320;23.198;2022-08-18T13:34:46;94400.22;;;32.34;29.17
63097;BME280;49185;42.320;23.198;2022-08-18T13:37:11;94399.34;;;32.47;29.38
63097;BME280;49185;42.320;23.198;2022-08-18T13:39:36;94400.28;;;31.80;30.72
63097;BME280;49185;42.320;23.198;2022-08-18T13:42:02;94394.88;;;32.44;28.38
63097;BME280;49185;42.320;23.198;2022-08-18T13:44:28;94387.53;;;32.54;28.59
63097;BME280;49185;42.320;23.198;2022-08-18T13:46:53;94398.22;;;32.42;29.67
63097;BME280;49185;42.320;23.198;2022-08-18T13:49:20;94399.69;;;32.43;28.75
63097;BME280;49185;42.320;23.198;2022-08-18T13:51:47;94404.69;;;32.37;30.44
63097;BME280;49185;42.320;23.198;2022-08-18T13:54:24;94401.25;;;32.24;29.91
63097;BME280;49185;42.320;23.198;2022-08-18T13:56:51;94397.09;;;32.38;30.60
63097;BME280;49185;42.320;23.198;2022-08-18T13:59:17;94387.09;;;32.42;29.48
63097;BME280;49185;42.320;23.198;2022-08-18T14:01:43;94377.75;;;32.32;29.85
63097;BME280;49185;42.320;23.198;2022-08-18T14:04:08;94381.53;;;32.42;29.44
63097;BME280;49185;42.320;23.198;2022-08-18T14:06:34;94380.31;;;32.30;29.50
63097;BME280;49185;42.320;23.198;2022-08-18T14:08:59;94388.41;;;32.21;29.33
63097;BME280;49185;42.320;23.198;2022-08-18T14:11:28;94376.78;;;32.09;29.45
63097;BME280;49185;42.320;23.198;2022-08-18T14:13:54;94383.59;;;32.00;29.49
63097;BME280;49185;42.320;23.198;2022-08-18T14:16:21;94393.75;;;31.98;29.82
63097;BME280;49185;42.320;23.198;2022-08-18T14:18:47;94379.44;;;31.73;28.43
63097;BME280;49185;42.320;23.198;2022-08-18T14:21:12;94377.91;;;32.06;30.14
63097;BME280;49185;42.320;23.198;2022-08-18T14:23:38;94373.59;;;32.26;30.07
63097;BME280;49185;42.320;23.198;2022-08-18T14:26:03;94375.44;;;32.02;31.12
63097;BME280;49185;42.320;23.198;2022-08-18T14:28:31;94361.59;;;32.10;29.08
63097;BME280;49185;42.320;23.198;2022-08-18T14:30:58;94366.28;;;32.15;30.33
63097;BME280;49185;42.320;23.198;2022-08-18T14:33:26;94366.94;;;32.08;29.43
63097;BME280;49185;42.320;23.198;2022-08-18T14:35:52;94375.03;;;31.98;32.31
63097;BME280;49185;42.320;23.198;2022-08-18T14:38:18;94366.78;;;32.06;30.04
63097;BME280;49185;42.320;23.198;2022-08-18T14:40:45;94371.31;;;31.96;29.57
63097;BME280;49185;42.320;23.198;2022-08-18T14:43:13;94372.19;;;31.91;29.92
63097;BME280;49185;42.320;23.198;2022-08-18T14:45:39;94377.75;;;31.91;31.11
63097;BME280;49185;42.320;23.198;2022-08-18T14:48:05;94370.22;;;31.99;30.89
63097;BME280;49185;42.320;23.198;2022-08-18T14:50:31;94377.94;;;31.93;29.12
63097;BME280;49185;42.320;23.198;2022-08-18T14:52:57;94376.81;;;31.88;29.88
63097;BME280;49185;42.320;23.198;2022-08-18T14:55:23;94369.75;;;31.87;29.86
63097;BME280;49185;42.320;23.198;2022-08-18T14:57:48;94375.91;;;31.93;29.39
63097;BME280;49185;42.320;23.198;2022-08-18T15:00:16;94369.38;;;31.49;30.11
63097;BME280;49185;42.320;23.198;2022-08-18T15:02:45;94371.44;;;31.69;31.88
63097;BME280;49185;42.320;23.198;2022-08-18T15:05:12;94372.59;;;31.95;30.59
63097;BME280;49185;42.320;23.198;2022-08-18T15:07:38;94373.00;;;31.99;32.10
63097;BME280;49185;42.320;23.198;2022-08-18T15:10:06;94367.38;;;31.91;30.84
63097;BME280;49185;42.320;23.198;2022-08-18T15:12:32;94381.63;;;31.88;29.80